createdAt,value
2019-05-12T00:01:03.772Z,10.50
2019-05-12T00:06:08.648Z,10.40
2019-05-12T00:11:10.879Z,10.40
2019-05-12T00:16:13.904Z,10.30
2019-05-12T00:21:17.719Z,10.10
2019-05-12T00:26:20.579Z,10.10
2019-05-12T00:31:23.240Z,10.00
2019-05-12T00:36:25.917Z,10.00
2019-05-12T00:41:28.637Z,9.90
2019-05-12T00:46:31.285Z,9.80
2019-05-12T00:51:33.936Z,9.80
2019-05-12T00:56:38.949Z,9.70
2019-05-12T01:01:41.044Z,9.60
2019-05-12T01:06:43.778Z,9.40
2019-05-12T01:11:48.143Z,9.40
2019-05-12T01:16:50.955Z,9.30
2019-05-12T01:21:54.096Z,9.20
2019-05-12T01:26:58.192Z,9.20
2019-05-12T01:32:01.143Z,9.10
2019-05-12T01:37:23.149Z,9.10
2019-05-12T01:42:25.867Z,9.10
2019-05-12T01:47:29.129Z,9.00
2019-05-12T01:52:31.991Z,9.00
2019-05-12T01:57:35.080Z,8.80
2019-05-12T02:02:38.646Z,8.80
2019-05-12T02:07:41.716Z,8.80
2019-05-12T02:12:44.510Z,8.70
2019-05-12T02:17:48.165Z,8.70
2019-05-12T02:22:51.436Z,8.60
2019-05-12T02:27:54.160Z,8.40
2019-05-12T02:32:59.222Z,8.40
2019-05-12T02:38:04.569Z,8.40
2019-05-12T02:43:06.140Z,8.50
2019-05-12T02:48:08.849Z,8.30
2019-05-12T02:53:14.238Z,8.30
2019-05-12T02:58:36.913Z,8.30
2019-05-12T03:03:44.143Z,8.30
2019-05-12T03:08:49.296Z,8.40
2019-05-12T03:13:54.736Z,8.20
2019-05-12T03:18:56.397Z,8.20
2019-05-12T03:23:59.441Z,8.20
2019-05-12T03:29:05.375Z,8.40
2019-05-12T03:34:09.245Z,8.50
2019-05-12T03:39:11.013Z,8.70
2019-05-12T03:44:15.081Z,8.70
2019-05-12T03:49:18.199Z,8.90
2019-05-12T03:54:24.153Z,8.90
2019-05-12T03:59:25.624Z,9.00
2019-05-12T04:04:28.561Z,9.00
2019-05-12T04:09:34.655Z,9.10
2019-05-12T04:14:35.671Z,9.20
2019-05-12T04:19:38.398Z,9.30
2019-05-12T04:24:44.350Z,9.30
2019-05-12T04:29:45.860Z,9.50
2019-05-12T04:34:48.597Z,9.50
2019-05-12T04:39:51.269Z,9.60
2019-05-12T04:44:55.281Z,9.40
2019-05-12T04:49:58.214Z,9.50
2019-05-12T04:55:04.449Z,9.60
2019-05-12T05:00:07.359Z,9.60
2019-05-12T05:05:10.678Z,9.60
2019-05-12T05:10:14.567Z,9.80
2019-05-12T05:15:17.644Z,9.80
2019-05-12T05:20:20.394Z,9.90
2019-05-12T05:25:23.697Z,9.90
2019-05-12T05:30:26.644Z,10.10
2019-05-12T05:35:37.175Z,10.00
2019-05-12T05:40:35.655Z,10.10
2019-05-12T05:45:38.459Z,10.30
2019-05-12T05:50:41.125Z,10.50
2019-05-12T05:55:44.271Z,10.50
2019-05-12T06:00:47.089Z,10.60
2019-05-12T06:05:49.824Z,10.70
2019-05-12T06:10:53.910Z,10.90
2019-05-12T06:16:20.805Z,11.00
2019-05-12T06:21:20.449Z,11.00
2019-05-12T06:26:31.013Z,11.20
2019-05-12T06:31:29.918Z,11.10
2019-05-12T06:36:33.978Z,11.20
2019-05-12T06:41:36.631Z,11.30
2019-05-12T06:46:39.365Z,11.30
2019-05-12T06:51:44.335Z,11.50
2019-05-12T06:56:50.104Z,11.50
2019-05-12T07:01:58.710Z,11.50
2019-05-12T07:07:00.486Z,11.40
2019-05-12T07:12:03.756Z,11.40
2019-05-12T07:17:06.080Z,11.50
2019-05-12T07:22:19.913Z,11.60
2019-05-12T07:27:14.096Z,11.90
2019-05-12T07:32:36.290Z,12.30
2019-05-12T07:37:59.958Z,12.50
2019-05-12T07:43:04.093Z,12.70
2019-05-12T07:48:10.140Z,12.70
2019-05-12T07:53:13.820Z,12.50
2019-05-12T07:58:19.054Z,12.70
2019-05-12T08:03:21.512Z,12.80
2019-05-12T08:08:25.387Z,12.90
2019-05-12T08:13:31.118Z,13.10
2019-05-12T08:18:36.989Z,13.30
2019-05-12T08:23:38.147Z,13.60
2019-05-12T08:28:41.112Z,13.80
2019-05-12T08:33:43.934Z,13.80
2019-05-12T08:38:46.817Z,13.60
2019-05-12T08:43:54.837Z,13.70
2019-05-12T08:49:00.052Z,14.00
2019-05-12T08:54:02.537Z,14.20
2019-05-12T08:59:09.561Z,14.10
2019-05-12T09:09:34.777Z,13.90
2019-05-12T09:14:41.235Z,13.90
2019-05-12T09:19:43.638Z,14.00
2019-05-12T09:24:46.884Z,14.40
2019-05-12T09:29:49.812Z,14.50
2019-05-12T09:34:57.926Z,14.50
2019-05-12T09:39:57.899Z,14.30
2019-05-12T09:45:08.077Z,14.60
2019-05-12T09:50:09.633Z,14.90
2019-05-12T09:55:11.286Z,15.00
2019-05-12T10:00:16.039Z,14.80
2019-05-12T10:05:18.760Z,14.80
2019-05-12T10:10:21.428Z,14.80
2019-05-12T10:15:28.565Z,14.80
2019-05-12T10:20:29.240Z,15.00
2019-05-12T10:25:33.867Z,15.30
2019-05-12T10:30:36.907Z,15.60
2019-05-12T10:35:39.702Z,15.70
2019-05-12T10:40:44.478Z,15.80
2019-05-12T10:45:46.739Z,15.50
2019-05-12T10:50:49.488Z,15.60
2019-05-12T10:55:54.067Z,16.00
2019-05-12T11:00:58.826Z,15.80
2019-05-12T11:06:04.931Z,15.30
2019-05-12T11:11:05.725Z,15.30
2019-05-12T11:16:08.656Z,16.00
2019-05-12T11:21:11.346Z,16.60
2019-05-12T11:26:14.237Z,16.60
2019-05-12T11:31:17.041Z,16.40
2019-05-12T11:36:19.710Z,15.90
2019-05-12T11:41:28.116Z,16.00
2019-05-12T11:46:26.826Z,16.00
2019-05-12T11:51:30.672Z,16.40
2019-05-12T11:56:33.738Z,17.10
2019-05-12T12:01:39.717Z,17.40
2019-05-12T12:06:43.707Z,17.40
2019-05-12T12:11:46.122Z,16.90
2019-05-12T12:16:50.633Z,16.40
2019-05-12T12:21:53.753Z,16.10
2019-05-12T12:26:56.538Z,16.30
2019-05-12T12:31:59.546Z,17.00
2019-05-12T12:37:03.273Z,17.70
2019-05-12T12:42:06.039Z,18.20
2019-05-12T12:47:08.711Z,18.70
2019-05-12T12:52:13.642Z,18.70
2019-05-12T12:57:18.923Z,18.80
2019-05-12T13:02:20.295Z,18.70
2019-05-12T13:07:24.131Z,17.70
2019-05-12T13:12:26.920Z,17.20
2019-05-12T13:17:36.415Z,17.20
2019-05-12T13:22:33.997Z,17.20
2019-05-12T13:27:36.983Z,16.90
2019-05-12T13:32:39.832Z,17.70
2019-05-12T13:37:43.292Z,18.20
2019-05-12T13:42:46.185Z,18.00
2019-05-12T13:47:48.868Z,17.80
2019-05-12T13:52:54.037Z,17.60
2019-05-12T13:57:57.591Z,17.40
2019-05-12T14:03:07.649Z,17.40
2019-05-12T14:08:05.100Z,18.10
2019-05-12T14:13:07.823Z,19.20
2019-05-12T14:18:15.597Z,20.20
2019-05-12T14:23:14.934Z,21.20
2019-05-12T14:28:17.613Z,21.90
2019-05-12T14:33:20.402Z,22.50
2019-05-12T14:38:25.442Z,21.60
2019-05-12T14:43:29.002Z,20.60
2019-05-12T14:48:33.083Z,19.80
2019-05-12T14:53:38.759Z,19.00
2019-05-12T14:58:40.647Z,18.20
2019-05-12T15:03:47.846Z,17.60
2019-05-12T15:08:48.071Z,17.40
2019-05-12T15:13:50.744Z,17.40
2019-05-12T15:18:54.148Z,17.30
2019-05-12T15:23:57.054Z,17.20
2019-05-12T15:28:59.719Z,17.10
2019-05-12T15:34:03.558Z,17.00
2019-05-12T15:39:07.702Z,16.90
2019-05-12T15:44:10.388Z,19.00
2019-05-12T15:49:13.042Z,19.30
2019-05-12T15:54:16.230Z,18.60
2019-05-12T15:59:18.895Z,17.80
2019-05-12T16:04:21.575Z,17.20
2019-05-12T16:09:24.297Z,16.70
2019-05-12T16:14:30.360Z,16.60
2019-05-12T16:19:31.362Z,18.00
2019-05-12T16:24:34.201Z,21.70
2019-05-12T16:29:38.854Z,21.90
2019-05-12T16:34:45.099Z,20.20
2019-05-12T16:39:47.491Z,18.90
2019-05-12T16:44:50.361Z,17.80
2019-05-12T16:49:53.430Z,18.20
2019-05-12T16:54:56.218Z,20.60
2019-05-12T17:00:05.293Z,23.50
2019-05-12T17:05:06.616Z,24.50
2019-05-12T17:10:11.910Z,25.70
2019-05-12T17:15:14.956Z,26.60
2019-05-12T17:20:18.113Z,26.90
2019-05-12T17:25:20.774Z,26.60
2019-05-12T17:30:23.882Z,25.30
2019-05-12T17:35:31.640Z,23.50
2019-05-12T17:40:33.713Z,21.40
2019-05-12T17:45:36.028Z,19.50
2019-05-12T17:50:40.640Z,18.80
2019-05-12T17:55:50.989Z,18.20
2019-05-12T18:00:51.791Z,17.90
2019-05-12T18:05:53.481Z,17.40
2019-05-12T18:10:56.314Z,17.10
2019-05-12T18:15:59.058Z,16.50
2019-05-12T18:21:03.563Z,16.20
2019-05-12T18:26:11.729Z,16.00
2019-05-12T18:31:10.542Z,15.80
2019-05-12T18:36:14.407Z,15.70
2019-05-12T18:41:17.330Z,15.70
2019-05-12T18:46:23.789Z,15.40
2019-05-12T18:51:25.753Z,15.40
2019-05-12T18:56:28.423Z,15.30
2019-05-12T19:01:33.327Z,15.20
2019-05-12T19:06:35.533Z,15.20
2019-05-12T19:11:42.167Z,15.00
2019-05-12T19:16:43.678Z,14.90
2019-05-12T19:21:46.960Z,14.80
2019-05-12T19:26:49.802Z,14.60
2019-05-12T19:31:57.332Z,14.50
2019-05-12T19:36:57.147Z,14.40
2019-05-12T19:41:59.832Z,14.30
2019-05-12T19:47:02.492Z,14.20
2019-05-12T19:52:05.243Z,14.10
2019-05-12T19:57:12.947Z,14.10
2019-05-12T20:02:14.429Z,13.90
2019-05-12T20:07:17.287Z,13.90
2019-05-12T20:12:19.952Z,13.80
2019-05-12T20:17:24.301Z,13.70
2019-05-12T20:22:27.033Z,13.60
2019-05-12T20:27:29.705Z,13.50
2019-05-12T20:32:34.376Z,13.40
2019-05-12T20:37:36.816Z,13.30
2019-05-12T20:42:44.012Z,13.30
2019-05-12T20:47:47.531Z,13.20
2019-05-12T20:52:52.319Z,13.00
2019-05-12T20:57:56.715Z,12.90
2019-05-12T21:02:57.122Z,12.80
2019-05-12T21:08:03.759Z,12.70
2019-05-12T21:13:04.721Z,12.70
2019-05-12T21:18:07.657Z,12.50
2019-05-12T21:23:10.459Z,12.50
2019-05-12T21:28:14.907Z,12.30
2019-05-12T21:33:17.494Z,12.30
2019-05-12T21:38:27.522Z,12.30
2019-05-12T21:43:24.877Z,12.10
2019-05-12T21:48:29.302Z,12.10
2019-05-12T21:53:34.328Z,12.10
2019-05-12T21:58:36.294Z,12.00
2019-05-12T22:03:38.952Z,12.00
2019-05-12T22:08:41.674Z,12.00
2019-05-12T22:13:54.905Z,11.90
2019-05-12T22:18:56.093Z,11.80
2019-05-12T22:23:56.697Z,11.80
2019-05-12T22:28:59.760Z,11.60
2019-05-12T22:34:04.051Z,11.60
2019-05-12T22:39:07.604Z,11.60
2019-05-12T22:44:18.432Z,11.40
2019-05-12T22:49:16.840Z,11.30
2019-05-12T22:54:19.455Z,11.20
2019-05-12T22:59:44.855Z,11.10
2019-05-12T23:04:47.349Z,11.10
2019-05-12T23:09:50.292Z,11.00
2019-05-12T23:14:54.132Z,11.00
2019-05-12T23:19:57.400Z,10.90
2019-05-12T23:25:00.048Z,10.80
2019-05-12T23:30:10.907Z,10.80
2019-05-12T23:35:08.588Z,10.70
2019-05-12T23:40:16.035Z,10.70
2019-05-12T23:45:16.740Z,10.50
2019-05-12T23:50:19.391Z,10.40
2019-05-12T23:55:24.184Z,10.20
